Terminal Aerodrome Forecast
Issued by NWS

Home | Current Version | Previous Version | Text Only | Print | Product List | Glossary On
Versions: 1 2 3 4 5 6 7 8 9 10 11 12 13
157
FTUS46 KSGX 052325
TAFPSP
TAF
KPSP 052325Z 0600/0624 30020G30KT P6SM SCT100
     FM060300 32012G22KT P6SM BKN100
     FM061000 VRB06KT P6SM BKN080
     FM061800 34012G20KT P6SM VCSH BKN070=

USA.gov is the U.S. government's official web portal to all federal, state and local government web resources and services.